Time;durP1;ratioP1;P1;durP2;ratioP2;P2;SDS_P1;SDS_P2;PMS_P1;PMS_P2;Temp;Humidity;BMP_temperature;BMP_pressure;BME280_temperature;BME280_humidity;BME280_pressure;Samples;Min_cycle;Max_cycle;Signal;HPM_P1;HPM_P2
2021/01/03 04:54:47;;;;;;;31.70;28.83;;;2.30;99.90;;;;;;5390060;23;20518;-80
2021/01/03 04:57:18;;;;;;;32.10;29.33;;;2.50;99.90;;;;;;4982666;28;20458;-78
2021/01/03 04:59:49;;;;;;;32.87;29.77;;;2.40;99.90;;;;;;4974782;28;20452;-76
2021/01/03 05:02:41;;;;;;;34.90;31.70;;;2.40;99.90;;;;;;4974258;28;20874;-77
2021/01/03 05:05:22;;;;;;;32.97;29.77;;;2.50;99.90;;;;;;4974344;28;20834;-79
2021/01/03 05:07:58;;;;;;;33.83;30.90;;;2.40;99.90;;;;;;4974524;28;20522;-79
2021/01/03 05:10:27;;;;;;;33.40;30.20;;;2.40;99.90;;;;;;4974078;28;20518;-78
2021/01/03 05:13:02;;;;;;;35.30;32.27;;;2.40;99.90;;;;;;4974342;28;20510;-79
2021/01/03 05:15:31;;;;;;;33.90;30.97;;;2.40;99.90;;;;;;4974433;28;20465;-82
2021/01/03 05:17:58;;;;;;;34.77;31.73;;;2.50;99.90;;;;;;4974091;28;20452;-82
2021/01/03 05:20:25;;;;;;;32.60;29.90;;;2.50;99.90;;;;;;4974185;28;20456;-83
2021/01/03 05:22:51;;;;;;;34.13;31.10;;;2.40;99.90;;;;;;4973776;28;20488;-85
2021/01/03 05:25:20;;;;;;;35.00;31.80;;;2.50;99.90;;;;;;4974388;28;20450;-83
2021/01/03 05:28:01;;;;;;;33.47;30.57;;;2.40;99.90;;;;;;4973972;28;20451;-82
2021/01/03 05:30:29;;;;;;;33.50;30.30;;;2.40;99.90;;;;;;4973701;28;20459;-79
2021/01/03 05:33:05;;;;;;;34.23;30.90;;;2.30;99.90;;;;;;4974102;28;20738;-77
2021/01/03 05:35:36;;;;;;;32.77;29.87;;;2.30;99.90;;;;;;4973964;28;21019;-75
2021/01/03 05:38:03;;;;;;;32.63;29.73;;;2.30;99.90;;;;;;4973925;28;20455;-74
2021/01/03 05:40:32;;;;;;;32.77;29.77;;;2.20;99.90;;;;;;4973483;28;20462;-74
2021/01/03 05:43:18;;;;;;;31.93;28.97;;;2.10;99.90;;;;;;4973695;28;20892;-75
2021/01/03 05:46:08;;;;;;;32.17;29.20;;;2.10;99.90;;;;;;4973809;28;20455;-75
2021/01/03 05:48:42;;;;;;;32.77;29.67;;;2.20;99.90;;;;;;4970213;28;20467;-75
2021/01/03 05:51:23;;;;;;;33.53;30.63;;;2.20;99.90;;;;;;4972572;28;20452;-75
2021/01/03 05:53:49;;;;;;;31.50;28.80;;;2.20;99.90;;;;;;4973378;28;20489;-74
2021/01/03 05:56:22;;;;;;;32.77;29.97;;;2.20;99.90;;;;;;4973277;28;20448;-77
2021/01/03 05:58:53;;;;;;;31.27;28.67;;;2.20;99.90;;;;;;4973611;28;20459;-77
2021/01/03 06:01:22;;;;;;;32.33;29.43;;;2.30;99.90;;;;;;4973694;28;20459;-77
2021/01/03 06:04:10;;;;;;;32.47;29.50;;;2.10;99.90;;;;;;4973178;28;21031;-76
2021/01/03 06:07:00;;;;;;;32.40;29.47;;;2.20;99.90;;;;;;4973536;28;20463;-77
2021/01/03 06:09:37;;;;;;;32.40;29.73;;;2.20;99.90;;;;;;4949340;28;20714;-78
2021/01/03 06:12:07;;;;;;;34.13;30.97;;;2.10;99.90;;;;;;4973585;28;20460;-77
2021/01/03 06:14:35;;;;;;;33.67;30.67;;;2.10;99.90;;;;;;4973266;28;20444;-77
2021/01/03 06:17:11;;;;;;;33.17;30.27;;;2.20;99.90;;;;;;4973162;28;20502;-77
2021/01/03 06:19:45;;;;;;;31.60;28.83;;;2.30;99.90;;;;;;4973313;28;20447;-77
2021/01/03 06:22:32;;;;;;;31.77;29.17;;;2.30;99.90;;;;;;4972917;28;20981;-76
2021/01/03 06:25:00;;;;;;;32.33;29.53;;;2.20;99.90;;;;;;4973083;28;20449;-76
2021/01/03 06:27:33;;;;;;;29.50;27.00;;;2.20;99.90;;;;;;4972803;28;20447;-76
2021/01/03 06:30:05;;;;;;;31.73;29.00;;;2.20;99.90;;;;;;4972858;28;20679;-77
2021/01/03 06:32:54;;;;;;;32.23;29.30;;;2.10;99.90;;;;;;4972853;28;20807;-78
2021/01/03 06:35:29;;;;;;;30.90;28.00;;;2.20;99.90;;;;;;4972912;28;20447;-77
2021/01/03 06:38:06;;;;;;;33.10;29.80;;;2.10;99.90;;;;;;4972736;28;20455;-78
2021/01/03 06:40:36;;;;;;;32.70;29.40;;;2.10;99.90;;;;;;4972951;28;20447;-78
2021/01/03 06:43:25;;;;;;;33.77;30.90;;;2.10;99.90;;;;;;4972707;28;20486;-77
2021/01/03 06:46:28;;;;;;;30.53;27.87;;;2.10;99.90;;;;;;4972416;28;20514;-77
2021/01/03 06:49:45;;;;;;;32.07;28.73;;;2.20;99.90;;;;;;4972564;28;20463;-78
2021/01/03 06:52:33;;;;;;;30.73;27.87;;;2.20;99.90;;;;;;4972291;28;20873;-78
2021/01/03 06:55:21;;;;;;;31.77;28.83;;;2.20;99.90;;;;;;4971957;28;20593;-76
2021/01/03 06:58:04;;;;;;;30.97;28.33;;;2.20;99.90;;;;;;4972705;28;20447;-78
2021/01/03 07:00:37;;;;;;;31.83;28.93;;;2.30;99.90;;;;;;4972307;28;20815;-79
2021/01/03 07:03:10;;;;;;;30.83;28.30;;;2.20;99.90;;;;;;4972196;28;20527;-77
2021/01/03 07:05:36;;;;;;;32.07;29.33;;;2.20;99.90;;;;;;4972336;28;20464;-78
2021/01/03 07:08:06;;;;;;;32.87;30.07;;;2.30;99.90;;;;;;4972384;28;20526;-78
2021/01/03 07:10:39;;;;;;;32.17;29.37;;;2.30;99.90;;;;;;4972117;28;20548;-78
2021/01/03 07:13:40;;;;;;;30.70;28.10;;;2.30;99.90;;;;;;4972215;28;20474;-78
2021/01/03 07:16:31;;;;;;;33.70;30.50;;;2.40;99.90;;;;;;4972251;28;20512;-80
2021/01/03 07:19:05;;;;;;;32.57;29.60;;;2.50;99.90;;;;;;4971543;28;20463;-77
2021/01/03 07:21:38;;;;;;;29.57;26.70;;;2.50;99.90;;;;;;4972150;28;20455;-77
2021/01/03 07:24:28;;;;;;;33.00;30.20;;;2.60;99.90;;;;;;4972112;28;21012;-76
2021/01/03 07:27:28;;;;;;;33.30;30.47;;;2.50;99.90;;;;;;4971892;28;20447;-76
2021/01/03 07:30:25;;;;;;;34.20;30.97;;;2.50;99.90;;;;;;4940188;28;21091;-76
2021/01/03 07:32:58;;;;;;;33.63;30.57;;;2.50;99.90;;;;;;4971651;28;20446;-79
2021/01/03 07:35:39;;;;;;;33.93;30.87;;;2.50;99.90;;;;;;4971803;28;20873;-78
2021/01/03 07:38:26;;;;;;;35.27;32.10;;;2.50;99.90;;;;;;4971985;28;20443;-79
2021/01/03 07:40:56;;;;;;;33.13;29.50;;;2.60;99.90;;;;;;4971729;28;20449;-80
2021/01/03 07:43:24;;;;;;;34.00;31.10;;;2.60;99.90;;;;;;4971592;28;20488;-80
2021/01/03 07:45:52;;;;;;;34.73;31.73;;;2.60;99.90;;;;;;4971760;28;20450;-82
2021/01/03 07:48:39;;;;;;;31.77;28.87;;;2.60;99.90;;;;;;4973347;28;20463;-88
2021/01/03 07:51:10;;;;;;;32.30;29.37;;;2.50;99.90;;;;;;4977054;28;20479;-77
2021/01/03 07:53:38;;;;;;;33.10;30.30;;;2.50;99.90;;;;;;4971344;28;20496;-83
2021/01/03 07:56:16;;;;;;;32.53;29.73;;;2.60;99.90;;;;;;4971721;28;20526;-80
2021/01/03 07:58:43;;;;;;;34.53;31.60;;;2.60;99.90;;;;;;4971380;28;20467;-77
2021/01/03 08:01:15;;;;;;;33.13;30.20;;;2.50;99.90;;;;;;4971439;28;20479;-78
2021/01/03 08:03:41;;;;;;;33.07;30.10;;;2.50;99.90;;;;;;4971345;28;20871;-78
2021/01/03 08:06:10;;;;;;;33.10;30.30;;;2.50;99.90;;;;;;4971550;28;20464;-76
2021/01/03 08:08:37;;;;;;;32.97;30.17;;;2.60;99.90;;;;;;4971547;28;20460;-74
2021/01/03 08:11:09;;;;;;;31.37;28.53;;;2.60;99.90;;;;;;4971744;28;20447;-79
2021/01/03 08:13:41;;;;;;;32.03;29.23;;;2.60;99.90;;;;;;4972244;28;20446;-75
2021/01/03 08:16:08;;;;;;;33.23;30.33;;;2.50;99.90;;;;;;4975420;28;20465;-75
2021/01/03 08:18:39;;;;;;;31.30;28.40;;;2.60;99.90;;;;;;4975402;28;20453;-77
2021/01/03 08:21:16;;;;;;;31.43;28.80;;;2.60;99.90;;;;;;4975646;28;20458;-76
2021/01/03 08:23:42;;;;;;;34.87;31.77;;;2.70;99.90;;;;;;4975118;28;20488;-76
2021/01/03 08:26:11;;;;;;;36.00;32.50;;;2.70;99.90;;;;;;4975123;28;20455;-74
2021/01/03 08:28:49;;;;;;;36.10;32.90;;;2.80;99.90;;;;;;4974874;28;20454;-74
2021/01/03 08:31:15;;;;;;;34.67;31.60;;;2.70;99.90;;;;;;4974730;28;20861;-76
2021/01/03 08:33:42;;;;;;;35.47;32.43;;;2.80;99.90;;;;;;4974868;28;20664;-76
2021/01/03 08:36:21;;;;;;;31.70;29.00;;;2.80;99.90;;;;;;4974719;28;20451;-76
2021/01/03 08:38:47;;;;;;;35.33;32.13;;;2.80;99.90;;;;;;4974657;28;20827;-76
2021/01/03 08:41:18;;;;;;;34.37;31.17;;;2.80;99.90;;;;;;4974474;28;20461;-77
2021/01/03 08:43:45;;;;;;;36.10;32.80;;;2.70;99.90;;;;;;4974358;28;20483;-76
2021/01/03 08:46:16;;;;;;;34.40;31.47;;;2.80;99.90;;;;;;4974392;28;20455;-77
2021/01/03 08:48:43;;;;;;;32.93;30.30;;;2.80;99.90;;;;;;4974296;28;20984;-76
2021/01/03 08:51:12;;;;;;;33.53;30.40;;;2.90;99.90;;;;;;4974376;28;20452;-87
2021/01/03 08:53:40;;;;;;;33.20;30.13;;;2.90;99.90;;;;;;4973975;28;20475;-77
2021/01/03 08:56:10;;;;;;;32.63;29.90;;;2.80;99.90;;;;;;4974338;28;20510;-76
2021/01/03 08:58:39;;;;;;;34.20;31.20;;;3.00;99.90;;;;;;4974478;28;20866;-77
2021/01/03 09:01:11;;;;;;;31.00;28.30;;;3.00;99.90;;;;;;4974331;28;20455;-77
2021/01/03 09:03:37;;;;;;;34.20;31.10;;;3.00;99.90;;;;;;4974226;28;20514;-76
2021/01/03 09:06:03;;;;;;;33.13;30.23;;;3.00;99.90;;;;;;4974157;28;20451;-77
2021/01/03 09:08:32;;;;;;;33.27;30.37;;;3.10;99.90;;;;;;4973877;28;20451;-77
2021/01/03 09:11:06;;;;;;;32.10;29.37;;;3.20;99.90;;;;;;4973906;28;20803;-76
2021/01/03 09:13:34;;;;;;;32.43;29.63;;;3.20;99.90;;;;;;4974152;28;20518;-76
2021/01/03 09:16:13;;;;;;;31.13;28.70;;;3.30;99.90;;;;;;4973771;28;20461;-77
2021/01/03 09:18:46;;;;;;;31.23;28.63;;;3.30;99.90;;;;;;4973766;28;20451;-76
2021/01/03 09:21:12;;;;;;;31.93;29.33;;;3.40;99.90;;;;;;4973836;28;20818;-77
2021/01/03 09:23:42;;;;;;;31.60;28.80;;;3.40;99.90;;;;;;4973548;28;20495;-78
2021/01/03 09:26:10;;;;;;;30.37;27.87;;;3.40;99.90;;;;;;4973428;28;20458;-78
2021/01/03 09:28:40;;;;;;;31.50;28.60;;;3.60;99.90;;;;;;4973683;28;20978;-78
2021/01/03 09:31:20;;;;;;;30.83;28.23;;;3.40;99.90;;;;;;4973878;28;20954;-78
2021/01/03 09:33:50;;;;;;;30.50;27.70;;;3.40;99.90;;;;;;4973557;28;20444;-78
2021/01/03 09:36:25;;;;;;;28.83;26.30;;;3.60;99.90;;;;;;4973490;28;20456;-78
2021/01/03 09:39:15;;;;;;;27.87;25.60;;;3.60;99.90;;;;;;4973575;28;20465;-80
2021/01/03 09:42:16;;;;;;;28.90;26.40;;;3.80;99.90;;;;;;4964631;28;21210;-79
2021/01/03 09:44:51;;;;;;;29.57;26.87;;;3.60;99.90;;;;;;4973132;28;20524;-79
2021/01/03 09:47:17;;;;;;;28.93;26.27;;;3.80;99.90;;;;;;4973153;28;20472;-78
2021/01/03 09:49:46;;;;;;;27.33;25.10;;;3.90;99.90;;;;;;4973434;28;20899;-79
2021/01/03 09:52:24;;;;;;;28.47;26.10;;;3.90;99.90;;;;;;4972999;28;20468;-79
2021/01/03 09:54:56;;;;;;;26.73;24.70;;;3.90;99.90;;;;;;4973003;28;20535;-78
2021/01/03 09:57:39;;;;;;;27.40;25.17;;;3.80;99.90;;;;;;4973052;28;20800;-78
2021/01/03 10:00:13;;;;;;;27.63;25.33;;;3.80;99.90;;;;;;4973124;28;20450;-80
2021/01/03 10:02:39;;;;;;;28.30;25.80;;;3.90;99.90;;;;;;4973055;28;20505;-80
2021/01/03 10:05:20;;;;;;;27.20;24.73;;;4.10;99.90;;;;;;4973006;28;20489;-79
2021/01/03 10:07:56;;;;;;;26.47;24.17;;;4.30;99.90;;;;;;4972721;28;20459;-77
2021/01/03 10:10:22;;;;;;;25.33;23.33;;;4.30;99.90;;;;;;4972889;28;20943;-79
2021/01/03 10:12:49;;;;;;;25.37;23.27;;;4.40;99.90;;;;;;4972903;28;20864;-79
2021/01/03 10:15:25;;;;;;;25.07;23.00;;;4.40;99.90;;;;;;4972632;28;20458;-79
2021/01/03 10:17:56;;;;;;;25.07;23.17;;;4.40;99.90;;;;;;4972699;28;20493;-80
2021/01/03 10:20:41;;;;;;;26.33;24.30;;;4.30;99.90;;;;;;4972784;28;20871;-80
2021/01/03 10:23:09;;;;;;;25.23;23.10;;;4.30;99.90;;;;;;4972636;28;20516;-80
2021/01/03 10:25:36;;;;;;;25.10;22.77;;;4.20;99.90;;;;;;4972745;28;20454;-80
2021/01/03 10:28:07;;;;;;;25.00;22.80;;;4.10;99.90;;;;;;4972450;28;20459;-81
2021/01/03 10:30:34;;;;;;;26.43;24.17;;;4.10;99.90;;;;;;4980344;28;20447;-80
2021/01/03 10:33:00;;;;;;;26.40;24.07;;;4.10;99.90;;;;;;4978492;28;20847;-79
2021/01/03 10:35:26;;;;;;;22.97;21.27;;;4.10;99.90;;;;;;4981484;28;20802;-81
2021/01/03 10:37:52;;;;;;;25.37;23.13;;;4.10;99.90;;;;;;4981924;28;20454;-80
2021/01/03 10:40:20;;;;;;;23.73;21.63;;;4.00;99.90;;;;;;4977052;28;20451;-80
2021/01/03 10:42:47;;;;;;;23.10;21.30;;;4.00;99.90;;;;;;4972214;28;20496;-81
2021/01/03 10:45:15;;;;;;;24.50;22.30;;;3.90;99.90;;;;;;4972029;28;20453;-79
2021/01/03 10:47:41;;;;;;;25.17;22.90;;;3.70;99.90;;;;;;4972047;28;20443;-81
2021/01/03 10:50:10;;;;;;;23.37;21.37;;;3.50;99.90;;;;;;4971838;28;21312;-83
2021/01/03 10:52:36;;;;;;;25.43;23.23;;;3.60;99.90;;;;;;4964015;28;20527;-78
2021/01/03 10:55:02;;;;;;;26.70;24.40;;;3.50;99.90;;;;;;4971632;28;20472;-78
2021/01/03 10:57:28;;;;;;;24.67;22.57;;;3.70;99.90;;;;;;4971870;28;20452;-76
2021/01/03 10:59:54;;;;;;;26.87;24.40;;;3.50;99.90;;;;;;4971526;28;20452;-79
2021/01/03 11:02:21;;;;;;;27.63;25.43;;;3.60;99.90;;;;;;4971961;28;20455;-79
2021/01/03 11:04:48;;;;;;;25.30;22.90;;;3.50;99.90;;;;;;4971635;28;20494;-80
2021/01/03 11:07:14;;;;;;;24.47;22.37;;;3.70;99.90;;;;;;4971594;28;20456;-80
2021/01/03 11:09:40;;;;;;;26.37;23.97;;;3.90;99.90;;;;;;4971598;28;20462;-80
2021/01/03 11:12:09;;;;;;;25.30;23.00;;;3.90;99.90;;;;;;4971626;28;20535;-80
2021/01/03 11:14:36;;;;;;;25.23;22.97;;;3.70;99.90;;;;;;4971676;28;20467;-80
2021/01/03 11:17:03;;;;;;;27.37;24.83;;;3.70;99.90;;;;;;4971403;28;20451;-81
2021/01/03 11:19:31;;;;;;;26.17;23.77;;;3.60;99.90;;;;;;4971324;28;20463;-81
2021/01/03 11:21:59;;;;;;;27.93;25.70;;;3.70;99.90;;;;;;4971031;28;20455;-81
2021/01/03 11:24:26;;;;;;;26.47;24.07;;;3.70;99.90;;;;;;4971277;28;20859;-81
2021/01/03 11:26:52;;;;;;;25.80;23.43;;;3.60;99.90;;;;;;4971226;28;20467;-81
2021/01/03 11:29:22;;;;;;;26.17;23.87;;;3.70;99.90;;;;;;4971320;28;20549;-82
2021/01/03 11:31:51;;;;;;;27.03;24.73;;;3.70;99.90;;;;;;4971284;28;20567;-80
2021/01/03 11:34:19;;;;;;;25.67;23.37;;;3.60;99.90;;;;;;4971450;28;20449;-80
2021/01/03 11:36:47;;;;;;;26.77;24.20;;;3.50;99.90;;;;;;4971226;28;20457;-79
2021/01/03 11:39:13;;;;;;;26.80;24.10;;;3.50;99.90;;;;;;4971317;28;20977;-78
2021/01/03 11:41:40;;;;;;;28.17;25.57;;;3.40;99.90;;;;;;4970985;28;20462;-78
2021/01/03 11:44:06;;;;;;;25.73;23.30;;;3.40;99.90;;;;;;4970841;28;20500;-78
2021/01/03 11:46:33;;;;;;;25.17;23.13;;;3.50;99.90;;;;;;4971037;28;20456;-78
2021/01/03 11:48:59;;;;;;;27.87;24.87;;;3.40;99.90;;;;;;4970089;28;20506;-79
2021/01/03 11:51:25;;;;;;;25.67;23.30;;;3.50;99.90;;;;;;4970976;28;20455;-78
2021/01/03 11:53:52;;;;;;;27.03;24.43;;;3.40;99.90;;;;;;4970525;28;20552;-79
2021/01/03 11:56:19;;;;;;;27.07;24.60;;;3.40;99.90;;;;;;4971130;28;20451;-78
2021/01/03 11:58:46;;;;;;;26.90;24.33;;;3.40;99.90;;;;;;4970901;28;20464;-77
2021/01/03 12:01:15;;;;;;;25.93;23.43;;;3.40;99.90;;;;;;4970883;28;20455;-80
2021/01/03 12:03:41;;;;;;;25.63;23.03;;;3.20;99.90;;;;;;4970678;28;20492;-78
2021/01/03 12:06:07;;;;;;;26.97;24.27;;;3.20;99.90;;;;;;4970749;28;20461;-80
2021/01/03 12:08:33;;;;;;;27.67;24.80;;;3.20;99.90;;;;;;4971177;28;20451;-77
2021/01/03 12:11:00;;;;;;;25.93;23.63;;;3.30;99.90;;;;;;4970629;28;20448;-77
2021/01/03 12:13:27;;;;;;;26.60;24.00;;;3.30;99.90;;;;;;4970849;28;20443;-77
2021/01/03 12:15:53;;;;;;;26.70;24.07;;;3.50;99.90;;;;;;4970559;28;20483;-78
2021/01/03 12:18:19;;;;;;;26.70;24.30;;;3.60;99.90;;;;;;4970770;28;20482;-78
2021/01/03 12:20:45;;;;;;;25.00;22.60;;;3.50;99.90;;;;;;4970571;28;20465;-76
2021/01/03 12:23:11;;;;;;;26.27;23.57;;;3.60;99.90;;;;;;4970180;28;20514;-76
2021/01/03 12:25:37;;;;;;;25.63;23.30;;;3.70;99.90;;;;;;4970631;28;20471;-76
2021/01/03 12:28:05;;;;;;;29.47;26.77;;;3.60;99.90;;;;;;4970781;28;20475;-76
2021/01/03 12:30:31;;;;;;;25.67;23.33;;;3.60;99.90;;;;;;4970605;28;20459;-76
2021/01/03 12:32:57;;;;;;;23.30;21.10;;;3.70;99.90;;;;;;4970436;28;20455;-76
2021/01/03 12:35:23;;;;;;;27.27;24.67;;;3.80;99.90;;;;;;4970745;28;20444;-76
2021/01/03 12:37:49;;;;;;;26.00;23.60;;;3.80;99.90;;;;;;4970608;28;20832;-75
2021/01/03 12:40:15;;;;;;;24.23;22.07;;;3.90;99.90;;;;;;4970528;28;20456;-76
2021/01/03 12:42:42;;;;;;;24.83;22.67;;;3.90;99.90;;;;;;4970695;28;20461;-75
2021/01/03 12:45:11;;;;;;;24.87;22.50;;;3.90;99.90;;;;;;4969311;28;21005;-75
2021/01/03 12:47:38;;;;;;;26.20;23.77;;;3.90;99.90;;;;;;4971436;28;20843;-76
2021/01/03 12:50:06;;;;;;;27.70;25.17;;;3.90;99.90;;;;;;4971628;28;20457;-75
2021/01/03 12:52:32;;;;;;;26.00;23.50;;;3.80;99.90;;;;;;4971268;28;20931;-77
2021/01/03 12:54:58;;;;;;;27.30;24.87;;;3.70;99.90;;;;;;4971104;28;20540;-76
2021/01/03 12:57:24;;;;;;;26.40;23.80;;;3.50;99.90;;;;;;4971040;28;20455;-75
2021/01/03 12:59:50;;;;;;;29.87;27.07;;;3.50;99.90;;;;;;4972342;28;20458;-76
2021/01/03 13:02:17;;;;;;;30.33;25.37;;;3.50;99.90;;;;;;4974878;28;20458;-75
2021/01/03 13:04:43;;;;;;;29.33;26.50;;;3.60;99.90;;;;;;4974666;28;20493;-75
2021/01/03 13:07:10;;;;;;;30.53;27.40;;;3.60;99.90;;;;;;4974526;28;20470;-76
2021/01/03 13:09:36;;;;;;;29.37;26.50;;;3.50;99.90;;;;;;4974800;28;20515;-75
2021/01/03 13:12:02;;;;;;;28.97;26.20;;;3.50;99.90;;;;;;4974591;28;20444;-75
2021/01/03 13:14:28;;;;;;;29.30;26.60;;;3.50;99.90;;;;;;4974567;28;20448;-75
2021/01/03 13:16:55;;;;;;;30.83;27.73;;;3.50;99.90;;;;;;4974402;28;20469;-75
2021/01/03 13:19:22;;;;;;;30.43;27.33;;;3.50;99.90;;;;;;4974672;28;20464;-75
2021/01/03 13:21:49;;;;;;;30.27;27.37;;;3.60;99.90;;;;;;4974484;28;20526;-74
2021/01/03 13:24:16;;;;;;;29.63;26.70;;;3.60;99.90;;;;;;4974447;28;20507;-75
2021/01/03 13:26:42;;;;;;;31.20;28.20;;;3.40;99.90;;;;;;4974389;28;20512;-74
2021/01/03 13:29:08;;;;;;;31.03;27.97;;;3.40;99.90;;;;;;4974354;28;20462;-74
2021/01/03 13:31:34;;;;;;;30.93;27.97;;;3.40;99.90;;;;;;4974455;28;20452;-75
2021/01/03 13:34:00;;;;;;;30.97;27.87;;;3.30;99.90;;;;;;4974162;28;20518;-75
2021/01/03 13:36:28;;;;;;;29.83;27.03;;;3.20;99.90;;;;;;4973632;28;20452;-75
2021/01/03 13:38:56;;;;;;;31.53;28.37;;;3.10;99.90;;;;;;4973399;28;20796;-75
2021/01/03 13:41:22;;;;;;;30.87;27.67;;;3.10;99.90;;;;;;4973757;28;20484;-75
2021/01/03 13:43:48;;;;;;;32.47;29.10;;;3.10;99.90;;;;;;4973808;28;20495;-75
2021/01/03 13:46:16;;;;;;;32.03;28.93;;;3.10;99.90;;;;;;4973429;28;20813;-74
2021/01/03 13:48:43;;;;;;;32.83;29.43;;;3.10;99.90;;;;;;4973429;28;20842;-75
2021/01/03 13:51:10;;;;;;;33.80;30.40;;;3.10;99.90;;;;;;4982427;28;20450;-75
2021/01/03 13:53:37;;;;;;;33.97;30.63;;;3.10;99.90;;;;;;4992623;28;21082;-75
2021/01/03 13:56:03;;;;;;;34.97;31.50;;;3.30;99.90;;;;;;4992741;28;20458;-75
2021/01/03 13:58:29;;;;;;;32.90;29.60;;;3.30;99.90;;;;;;4992797;28;20507;-74
2021/01/03 14:00:56;;;;;;;32.67;29.57;;;3.40;99.90;;;;;;4992613;28;20465;-75
2021/01/03 14:03:22;;;;;;;32.37;29.10;;;3.40;99.90;;;;;;4992860;28;20977;-76
2021/01/03 14:05:49;;;;;;;33.10;29.77;;;3.30;99.90;;;;;;4992977;28;20493;-75
2021/01/03 14:08:16;;;;;;;31.53;28.77;;;3.40;99.90;;;;;;4992834;28;20467;-76
2021/01/03 14:10:43;;;;;;;32.90;29.60;;;3.40;99.90;;;;;;4992512;28;20456;-76
2021/01/03 14:13:12;;;;;;;32.70;29.47;;;3.50;99.90;;;;;;4992254;28;20447;-75
2021/01/03 14:15:38;;;;;;;33.90;30.47;;;3.50;99.90;;;;;;4992744;28;20452;-75
2021/01/03 14:18:05;;;;;;;33.77;30.47;;;3.50;99.90;;;;;;4993034;28;20461;-75
2021/01/03 14:20:31;;;;;;;34.80;31.20;;;3.50;99.90;;;;;;4992546;28;20455;-75
2021/01/03 14:22:57;;;;;;;33.20;29.70;;;3.50;99.90;;;;;;4992458;28;20455;-75
2021/01/03 14:25:25;;;;;;;33.63;30.43;;;3.50;99.90;;;;;;4992408;28;20487;-75
2021/01/03 14:27:53;;;;;;;33.83;30.57;;;3.50;99.90;;;;;;4992688;28;21052;-75
2021/01/03 14:30:21;;;;;;;33.50;30.10;;;3.30;99.90;;;;;;4992616;28;20451;-75
2021/01/03 14:32:50;;;;;;;31.50;28.60;;;3.40;99.90;;;;;;4992685;28;20457;-75
2021/01/03 14:35:17;;;;;;;32.30;29.20;;;3.40;99.90;;;;;;4992696;28;20455;-75
2021/01/03 14:37:46;;;;;;;31.33;28.40;;;3.50;99.90;;;;;;4992234;28;21121;-75
2021/01/03 14:40:25;;;;;;;32.97;29.97;;;3.60;99.90;;;;;;4992240;28;20467;-75
2021/01/03 14:42:57;;;;;;;32.10;28.93;;;3.70;99.90;;;;;;4992554;28;20459;-75
2021/01/03 14:45:26;;;;;;;30.80;28.10;;;3.60;99.90;;;;;;4992119;28;20490;-74
2021/01/03 14:48:06;;;;;;;31.07;28.07;;;3.70;99.90;;;;;;4992230;28;20974;-73
2021/01/03 14:50:49;;;;;;;31.50;28.33;;;3.50;99.90;;;;;;4992315;28;20454;-76
2021/01/03 14:53:17;;;;;;;33.03;29.73;;;3.60;99.90;;;;;;4991997;28;20830;-76
2021/01/03 14:56:01;;;;;;;33.37;30.13;;;3.60;99.90;;;;;;4991703;28;20486;-74
2021/01/03 14:58:31;;;;;;;31.60;28.57;;;3.60;99.90;;;;;;4992041;28;20456;-75
2021/01/03 15:00:58;;;;;;;32.03;28.77;;;3.60;99.90;;;;;;4991784;28;20842;-74
2021/01/03 15:03:52;;;;;;;32.87;29.70;;;3.60;99.90;;;;;;4991842;28;20447;-75
2021/01/03 15:06:46;;;;;;;31.87;28.67;;;3.50;99.90;;;;;;4991848;28;20452;-75
2021/01/03 15:09:12;;;;;;;31.37;28.20;;;3.40;99.90;;;;;;4985856;28;20466;-75
2021/01/03 15:11:50;;;;;;;30.23;27.10;;;3.50;99.90;;;;;;4991688;28;20446;-75
2021/01/03 15:14:18;;;;;;;29.13;26.43;;;3.60;99.90;;;;;;4991694;28;20451;-75
2021/01/03 15:16:44;;;;;;;30.63;27.73;;;3.50;99.90;;;;;;4991656;28;20451;-75
2021/01/03 15:19:18;;;;;;;29.93;26.80;;;3.40;99.90;;;;;;4991714;28;20807;-75
2021/01/03 15:21:45;;;;;;;31.70;28.73;;;3.30;99.90;;;;;;4991514;28;20485;-75
2021/01/03 15:24:14;;;;;;;30.90;27.90;;;3.30;99.90;;;;;;4991212;28;20489;-75
2021/01/03 15:26:45;;;;;;;31.23;28.13;;;3.40;99.90;;;;;;4991479;28;20517;-75
2021/01/03 15:29:15;;;;;;;34.30;29.47;;;3.30;99.90;;;;;;4991399;28;20455;-74
2021/01/03 15:31:46;;;;;;;30.50;27.20;;;3.30;99.90;;;;;;4991413;28;20578;-75
2021/01/03 15:34:16;;;;;;;33.17;29.80;;;3.30;99.90;;;;;;4991276;28;20941;-76
2021/01/03 15:36:45;;;;;;;31.27;28.00;;;3.30;99.90;;;;;;4991289;28;20447;-74
2021/01/03 15:39:11;;;;;;;31.70;28.70;;;3.40;99.90;;;;;;4991235;28;20455;-75
2021/01/03 15:41:51;;;;;;;33.33;30.17;;;3.40;99.90;;;;;;4991280;28;20459;-75
2021/01/03 15:44:22;;;;;;;34.07;30.00;;;3.40;99.90;;;;;;4991031;28;20486;-75
2021/01/03 15:46:56;;;;;;;32.83;29.30;;;3.40;99.90;;;;;;4991419;28;20459;-75
2021/01/03 15:49:27;;;;;;;33.30;29.80;;;3.50;99.90;;;;;;4991250;28;20528;-75
2021/01/03 15:51:55;;;;;;;30.43;27.23;;;3.60;99.90;;;;;;4990881;28;20509;-76
2021/01/03 15:54:21;;;;;;;33.07;29.67;;;3.60;99.90;;;;;;4990903;28;21125;-77
2021/01/03 15:56:52;;;;;;;33.43;29.87;;;3.60;99.90;;;;;;4991011;28;20461;-75
2021/01/03 15:59:18;;;;;;;32.17;28.37;;;3.60;99.90;;;;;;4991079;28;20465;-76
2021/01/03 16:01:45;;;;;;;31.03;27.67;;;3.60;99.90;;;;;;4991012;28;20449;-76
2021/01/03 16:04:14;;;;;;;32.73;29.33;;;3.70;99.90;;;;;;4991084;28;20845;-76
2021/01/03 16:06:44;;;;;;;32.37;29.10;;;3.60;99.90;;;;;;4990956;28;20487;-76
2021/01/03 16:09:13;;;;;;;34.07;29.13;;;3.50;99.90;;;;;;4990874;28;20459;-76
2021/01/03 16:11:39;;;;;;;32.40;29.37;;;3.60;99.90;;;;;;4990943;28;20521;-76
2021/01/03 16:14:06;;;;;;;31.27;28.27;;;3.50;99.90;;;;;;4991037;28;20582;-74
2021/01/03 16:16:36;;;;;;;31.93;28.80;;;3.60;99.90;;;;;;4990989;28;20449;-76
2021/01/03 16:19:06;;;;;;;33.90;30.30;;;3.50;99.90;;;;;;4990857;28;20456;-77
2021/01/03 16:21:52;;;;;;;32.60;29.13;;;3.50;99.90;;;;;;4990648;28;20451;-77
2021/01/03 16:24:19;;;;;;;32.57;29.23;;;3.50;99.90;;;;;;4990421;28;20484;-75
2021/01/03 16:26:50;;;;;;;35.37;30.00;;;3.50;99.90;;;;;;4976591;28;20463;-77
2021/01/03 16:29:36;;;;;;;29.87;26.73;;;3.40;99.90;;;;;;4979323;28;20447;-76
2021/01/03 16:32:13;;;;;;;30.97;27.60;;;3.50;99.90;;;;;;4980520;28;20483;-76
2021/01/03 16:34:59;;;;;;;31.17;27.90;;;3.40;99.90;;;;;;4981542;28;20438;-76
2021/01/03 16:37:46;;;;;;;30.73;27.83;;;3.50;99.90;;;;;;4984568;28;20463;-76
2021/01/03 16:40:25;;;;;;;31.50;28.20;;;3.40;99.90;;;;;;4982010;28;20454;-76
2021/01/03 16:43:13;;;;;;;34.77;29.80;;;3.40;99.90;;;;;;4981892;28;20876;-76
2021/01/03 16:45:48;;;;;;;30.70;27.67;;;3.50;99.90;;;;;;4983688;28;20539;-77
2021/01/03 16:48:56;;;;;;;32.23;28.97;;;3.50;99.90;;;;;;4982507;28;20443;-77
2021/01/03 16:51:25;;;;;;;33.90;29.50;;;3.40;99.90;;;;;;4982400;28;20455;-77
2021/01/03 16:54:01;;;;;;;31.57;28.20;;;3.50;99.90;;;;;;4983206;28;20474;-76
2021/01/03 16:57:01;;;;;;;33.00;29.83;;;3.50;99.90;;;;;;4980352;28;20831;-76
2021/01/03 16:59:44;;;;;;;33.23;29.10;;;3.70;99.90;;;;;;4984024;28;21008;-76
2021/01/03 17:02:15;;;;;;;32.40;28.90;;;3.70;99.90;;;;;;4980872;28;20821;-77
2021/01/03 17:04:41;;;;;;;33.97;28.67;;;3.70;99.90;;;;;;4981948;28;20755;-76
2021/01/03 17:07:11;;;;;;;31.53;28.33;;;3.70;99.90;;;;;;4983885;28;20458;-75
2021/01/03 17:09:48;;;;;;;32.77;29.17;;;3.60;99.90;;;;;;4983884;28;20964;-76
2021/01/03 17:12:46;;;;;;;33.00;29.77;;;3.50;99.90;;;;;;4981887;28;20456;-76
2021/01/03 17:15:17;;;;;;;34.77;27.60;;;3.40;99.90;;;;;;4984410;28;20447;-77
2021/01/03 17:17:49;;;;;;;27.03;24.37;;;3.40;99.90;;;;;;4993975;28;20463;-75
2021/01/03 17:20:33;;;;;;;33.50;29.83;;;3.40;99.90;;;;;;4994006;28;20454;-74
2021/01/03 17:23:13;;;;;;;30.23;27.13;;;3.30;99.90;;;;;;4983780;28;20451;-75
2021/01/03 17:25:56;;;;;;;29.10;26.10;;;3.40;99.90;;;;;;4983745;28;20536;-75
2021/01/03 17:28:52;;;;;;;31.93;28.53;;;3.40;99.90;;;;;;4980039;28;20479;-74
2021/01/03 17:31:31;;;;;;;34.53;27.97;;;3.40;99.90;;;;;;4972657;28;20459;-75
2021/01/03 17:34:00;;;;;;;32.03;28.73;;;3.40;99.90;;;;;;4983538;28;20501;-75
2021/01/03 17:36:45;;;;;;;31.67;28.30;;;3.50;99.90;;;;;;4980774;28;20463;-76
2021/01/03 17:39:14;;;;;;;31.43;27.23;;;3.50;99.90;;;;;;4981989;28;20451;-75
2021/01/03 17:41:43;;;;;;;32.50;29.00;;;3.50;99.90;;;;;;4981387;28;20556;-75
2021/01/03 17:44:21;;;;;;;29.73;26.73;;;3.50;99.90;;;;;;4982066;28;20483;-74
2021/01/03 17:46:56;;;;;;;31.27;27.37;;;3.40;99.90;;;;;;4983614;28;20454;-74
2021/01/03 17:49:26;;;;;;;34.10;30.70;;;3.40;99.90;;;;;;4993435;28;20549;-75
2021/01/03 17:51:52;;;;;;;32.30;27.80;;;3.40;99.90;;;;;;4993270;28;20459;-75
2021/01/03 17:54:20;;;;;;;32.87;29.47;;;3.40;99.90;;;;;;4993382;28;20475;-75